createdAt,value
2018-10-19T00:01:51.221Z,2.77
2018-10-19T00:04:28.149Z,3.17
2018-10-19T00:07:05.668Z,2.30
2018-10-19T00:09:43.897Z,2.10
2018-10-19T00:12:20.336Z,2.63
2018-10-19T00:14:54.463Z,2.53
2018-10-19T00:17:28.691Z,2.70
2018-10-19T00:20:03.273Z,2.90
2018-10-19T00:22:37.868Z,2.13
2018-10-19T00:25:12.319Z,2.80
2018-10-19T00:27:41.611Z,2.37
2018-10-19T00:30:11.570Z,2.70
2018-10-19T00:32:40.891Z,2.60
2018-10-19T00:35:10.756Z,2.67
2018-10-19T00:37:40.044Z,2.40
2018-10-19T00:40:09.352Z,2.40
2018-10-19T00:42:38.656Z,2.30
2018-10-19T00:45:08.091Z,2.20
2018-10-19T00:47:37.609Z,2.50
2018-10-19T00:50:07.398Z,2.70
2018-10-19T00:52:36.694Z,2.50
2018-10-19T00:55:07.423Z,2.60
2018-10-19T00:57:36.841Z,2.30
2018-10-19T01:00:07.382Z,2.30
2018-10-19T01:02:36.784Z,2.27
2018-10-19T01:05:06.389Z,2.10
2018-10-19T01:07:35.674Z,2.30
2018-10-19T01:10:05.067Z,3.03
2018-10-19T01:12:34.403Z,2.40
2018-10-19T01:15:03.944Z,1.97
2018-10-19T01:17:33.402Z,2.70
2018-10-19T01:20:02.834Z,2.00
2018-10-19T01:22:32.417Z,2.33
2018-10-19T01:25:01.803Z,2.17
2018-10-19T01:27:31.204Z,2.07
2018-10-19T01:30:00.660Z,2.30
2018-10-19T01:32:30.011Z,2.42
2018-10-19T01:34:59.499Z,2.67
2018-10-19T01:37:28.836Z,2.30
2018-10-19T01:39:58.367Z,2.40
2018-10-19T01:42:28.012Z,2.40
2018-10-19T01:44:57.458Z,2.47
2018-10-19T01:47:26.864Z,2.10
2018-10-19T01:49:56.492Z,2.30
2018-10-19T01:52:25.794Z,2.23
2018-10-19T01:54:55.102Z,2.07
2018-10-19T01:57:24.430Z,2.57
2018-10-19T01:59:53.827Z,2.57
2018-10-19T02:02:23.165Z,2.23
2018-10-19T02:04:52.488Z,2.33
2018-10-19T02:07:21.827Z,2.05
2018-10-19T02:09:51.148Z,2.67
2018-10-19T02:12:20.446Z,2.95
2018-10-19T02:14:49.748Z,2.10
2018-10-19T02:17:19.057Z,2.60
2018-10-19T02:19:48.347Z,2.23
2018-10-19T02:22:17.672Z,2.40
2018-10-19T02:24:46.985Z,3.30
2018-10-19T02:27:16.356Z,3.10
2018-10-19T02:29:45.649Z,2.97
2018-10-19T02:32:14.949Z,2.90
2018-10-19T02:34:44.346Z,2.80
2018-10-19T02:37:13.650Z,2.20
2018-10-19T02:39:43.030Z,3.53
2018-10-19T02:42:12.336Z,2.80
2018-10-19T02:44:41.641Z,3.30
2018-10-19T02:47:11.009Z,2.95
2018-10-19T02:49:40.286Z,3.17
2018-10-19T02:52:09.692Z,2.87
2018-10-19T02:54:38.978Z,3.50
2018-10-19T02:57:08.462Z,3.30
2018-10-19T02:59:37.759Z,2.33
2018-10-19T03:02:07.219Z,2.60
2018-10-19T03:04:36.533Z,3.20
2018-10-19T03:07:07.036Z,3.27
2018-10-19T03:09:36.351Z,3.40
2018-10-19T03:12:06.291Z,3.33
2018-10-19T03:14:35.622Z,3.93
2018-10-19T03:17:06.353Z,5.83
2018-10-19T03:19:35.635Z,5.07
2018-10-19T03:22:06.383Z,3.67
2018-10-19T03:24:35.716Z,2.97
2018-10-19T03:27:06.900Z,3.10
2018-10-19T03:29:36.206Z,5.07
2018-10-19T03:32:06.274Z,4.20
2018-10-19T03:34:35.796Z,4.73
2018-10-19T03:37:06.874Z,6.03
2018-10-19T03:39:36.428Z,4.57
2018-10-19T03:42:06.542Z,5.97
2018-10-19T03:44:36.100Z,3.37
2018-10-19T03:47:07.309Z,6.10
2018-10-19T03:49:36.572Z,5.87
2018-10-19T03:52:06.668Z,5.47
2018-10-19T03:54:36.001Z,5.70
2018-10-19T03:57:06.134Z,6.55
2018-10-19T03:59:35.398Z,5.70
2018-10-19T04:02:06.038Z,6.23
2018-10-19T04:04:35.431Z,5.23
2018-10-19T04:07:06.166Z,5.50
2018-10-19T04:12:19.213Z,7.03
2018-10-19T04:14:48.541Z,6.57
2018-10-19T04:17:17.874Z,7.17
2018-10-19T04:19:47.302Z,6.23
2018-10-19T04:22:16.613Z,7.03
2018-10-19T04:24:45.953Z,7.63
2018-10-19T04:27:15.344Z,6.10
2018-10-19T04:29:44.690Z,7.50
2018-10-19T04:32:14.119Z,6.13
2018-10-19T04:34:49.433Z,5.93
2018-10-19T04:37:21.684Z,5.73
2018-10-19T04:39:51.020Z,8.00
2018-10-19T04:42:20.379Z,7.00
2018-10-19T04:44:49.707Z,6.50
2018-10-19T04:47:19.145Z,6.30
2018-10-19T04:49:48.570Z,3.80
2018-10-19T04:52:17.963Z,5.17
2018-10-19T04:54:47.395Z,8.17
2018-10-19T04:57:16.875Z,5.40
2018-10-19T05:00:35.074Z,5.97
2018-10-19T05:03:08.355Z,5.03
2018-10-19T05:05:38.375Z,5.97
2018-10-19T05:08:11.139Z,5.80
2018-10-19T05:13:32.588Z,5.53
2018-10-19T05:16:01.995Z,6.63
2018-10-19T05:18:31.422Z,5.27
2018-10-19T05:21:00.799Z,5.03
2018-10-19T05:23:30.222Z,7.00
2018-10-19T05:26:02.165Z,6.27
2018-10-19T05:28:43.334Z,6.30
2018-10-19T05:31:26.098Z,5.10
2018-10-19T05:33:57.049Z,5.87
2018-10-19T05:36:26.851Z,7.43
2018-10-19T05:38:56.196Z,5.27
2018-10-19T05:41:29.584Z,5.57
2018-10-19T05:43:58.983Z,6.23
2018-10-19T05:46:28.359Z,5.03
2018-10-19T05:48:57.724Z,7.90
2018-10-19T05:51:27.097Z,6.50
2018-10-19T05:53:56.523Z,5.83
2018-10-19T05:56:25.888Z,7.00
2018-10-19T05:58:55.250Z,7.13
2018-10-19T06:01:24.625Z,4.70
2018-10-19T06:03:54.047Z,4.83
2018-10-19T06:06:23.391Z,5.03
2018-10-19T06:08:59.776Z,4.40
2018-10-19T06:11:38.680Z,4.73
2018-10-19T06:14:08.449Z,5.13
2018-10-19T06:16:37.979Z,5.63
2018-10-19T06:19:08.282Z,7.30
2018-10-19T06:21:37.630Z,7.03
2018-10-19T06:24:08.257Z,7.17
2018-10-19T06:26:37.662Z,5.97
2018-10-19T06:29:10.788Z,4.97
2018-10-19T06:31:49.753Z,7.13
2018-10-19T06:38:02.727Z,7.80
2018-10-19T06:40:32.210Z,6.23
2018-10-19T06:43:01.683Z,6.30
2018-10-19T06:45:31.208Z,7.53
2018-10-19T06:48:00.722Z,8.18
2018-10-19T06:50:30.381Z,7.30
2018-10-19T06:53:03.243Z,7.73
2018-10-19T06:55:33.238Z,8.10
2018-10-19T06:58:03.860Z,8.87
2018-10-19T07:00:36.350Z,9.33
2018-10-19T07:03:06.889Z,9.10
2018-10-19T07:05:36.590Z,9.73
2018-10-19T07:08:08.038Z,8.53
2018-10-19T07:10:37.514Z,10.43
2018-10-19T07:13:07.073Z,8.90
2018-10-19T07:15:41.171Z,8.77
2018-10-19T07:18:14.346Z,8.73
2018-10-19T07:20:44.756Z,9.00
2018-10-19T07:23:14.668Z,9.18
2018-10-19T07:25:44.052Z,7.97
2018-10-19T07:28:13.716Z,8.38
2018-10-19T07:30:46.095Z,9.85
2018-10-19T07:33:16.615Z,8.50
2018-10-19T07:35:46.030Z,6.17
2018-10-19T07:38:18.481Z,7.20
2018-10-19T07:40:49.717Z,6.77
2018-10-19T07:43:19.254Z,6.63
2018-10-19T07:45:48.980Z,7.20
2018-10-19T07:48:18.576Z,6.23
2018-10-19T07:50:49.083Z,7.43
2018-10-19T07:56:09.711Z,6.33
2018-10-19T07:58:39.105Z,6.77
2018-10-19T08:01:08.611Z,7.80
2018-10-19T08:03:37.906Z,7.10
2018-10-19T08:06:07.277Z,8.20
2018-10-19T08:08:36.637Z,7.80
2018-10-19T08:11:08.123Z,7.00
2018-10-19T08:13:37.543Z,6.20
2018-10-19T08:18:37.518Z,5.57
2018-10-19T08:21:07.560Z,5.70
2018-10-19T08:23:37.076Z,5.80
2018-10-19T08:26:17.289Z,6.43
2018-10-19T08:28:54.059Z,6.20
2018-10-19T08:31:29.578Z,6.60
2018-10-19T08:33:58.930Z,5.67
2018-10-19T08:36:28.326Z,6.07
2018-10-19T08:39:10.140Z,5.20
2018-10-19T08:41:39.635Z,5.87
2018-10-19T08:44:09.118Z,5.43
2018-10-19T08:46:39.329Z,5.43
2018-10-19T08:49:18.475Z,5.68
2018-10-19T08:51:47.839Z,5.13
2018-10-19T08:54:17.343Z,6.83
2018-10-19T08:56:46.717Z,5.40
2018-10-19T09:00:08.213Z,4.97
2018-10-19T09:02:37.752Z,4.87
2018-10-19T09:05:07.127Z,5.00
2018-10-19T09:07:43.075Z,4.93
2018-10-19T09:10:22.315Z,4.57
2018-10-19T09:12:51.799Z,4.87
2018-10-19T09:15:21.345Z,4.50
2018-10-19T09:17:51.207Z,3.67
2018-10-19T09:20:20.575Z,3.10
2018-10-19T09:22:52.778Z,3.20
2018-10-19T09:25:22.206Z,3.10
2018-10-19T09:27:51.662Z,2.37
2018-10-19T09:30:33.145Z,2.00
2018-10-19T09:33:02.843Z,2.43
2018-10-19T09:35:49.546Z,2.33
2018-10-19T09:38:19.226Z,2.50
2018-10-19T09:40:50.801Z,2.47
2018-10-19T09:43:22.098Z,2.65
2018-10-19T09:45:51.516Z,2.40
2018-10-19T09:48:28.356Z,2.50
2018-10-19T09:51:00.535Z,1.83
2018-10-19T09:53:29.948Z,1.30
2018-10-19T09:56:00.267Z,1.73
2018-10-19T09:58:29.662Z,1.93
2018-10-19T10:00:59.103Z,2.20
2018-10-19T10:03:30.055Z,1.87
2018-10-19T10:06:28.894Z,1.93
2018-10-19T10:08:58.391Z,1.67
2018-10-19T10:11:28.294Z,1.50
2018-10-19T10:13:57.660Z,1.67
2018-10-19T10:16:27.046Z,1.70
2018-10-19T10:18:56.439Z,1.80
2018-10-19T10:21:25.946Z,2.00
2018-10-19T10:23:55.298Z,2.07
2018-10-19T10:26:24.666Z,1.87
2018-10-19T10:28:54.107Z,1.67
2018-10-19T10:31:31.804Z,2.08
2018-10-19T10:34:19.265Z,2.10
2018-10-19T10:36:48.615Z,2.27
2018-10-19T10:39:18.131Z,1.70
2018-10-19T10:41:47.477Z,1.90
2018-10-19T10:44:16.863Z,1.93
2018-10-19T10:46:49.370Z,2.00
2018-10-19T10:49:18.760Z,2.08
2018-10-19T10:51:48.113Z,2.50
2018-10-19T10:54:17.462Z,2.12
2018-10-19T10:56:46.898Z,2.70
2018-10-19T10:59:16.293Z,2.87
2018-10-19T11:01:45.640Z,2.43
2018-10-19T11:04:16.244Z,2.45
2018-10-19T11:06:48.032Z,2.57
2018-10-19T11:09:17.431Z,3.07
2018-10-19T11:11:50.279Z,2.40
2018-10-19T11:14:19.620Z,2.80
2018-10-19T11:16:49.008Z,3.03
2018-10-19T11:19:18.372Z,2.87
2018-10-19T11:21:48.030Z,3.00
2018-10-19T11:24:17.423Z,3.10
2018-10-19T11:26:48.651Z,3.20
2018-10-19T11:29:30.179Z,3.02
2018-10-19T11:31:59.685Z,3.03
2018-10-19T11:34:29.321Z,2.87
2018-10-19T11:36:58.685Z,2.70
2018-10-19T11:39:28.096Z,3.03
2018-10-19T11:41:57.459Z,3.40
2018-10-19T11:44:26.880Z,3.00
2018-10-19T11:47:00.091Z,3.00
2018-10-19T11:49:29.988Z,3.00
2018-10-19T11:52:01.222Z,3.00
2018-10-19T11:54:30.538Z,3.17
2018-10-19T11:57:12.020Z,2.70
2018-10-19T11:59:41.295Z,3.17
2018-10-19T12:02:11.108Z,3.17
2018-10-19T12:04:40.610Z,3.17
2018-10-19T12:07:10.026Z,2.60
2018-10-19T12:09:39.367Z,3.00
2018-10-19T12:12:08.758Z,3.07
2018-10-19T12:14:38.091Z,3.90
2018-10-19T12:17:07.547Z,3.37
2018-10-19T12:19:37.147Z,3.13
2018-10-19T12:22:06.536Z,3.13
2018-10-19T12:24:35.945Z,3.00
2018-10-19T12:27:06.175Z,3.23
2018-10-19T12:29:35.851Z,3.43
2018-10-19T12:32:06.947Z,3.26
2018-10-19T12:34:57.438Z,3.60
2018-10-19T12:37:28.668Z,3.17
2018-10-19T12:39:58.292Z,3.43
2018-10-19T12:42:27.642Z,3.47
2018-10-19T12:44:57.096Z,4.53
2018-10-19T12:47:37.072Z,4.67
2018-10-19T12:50:06.984Z,3.70
2018-10-19T12:52:36.393Z,4.17
2018-10-19T12:55:08.299Z,4.23
2018-10-19T12:57:38.210Z,3.90
2018-10-19T13:00:08.680Z,4.17
2018-10-19T13:02:38.388Z,3.90
2018-10-19T13:05:07.800Z,3.50
2018-10-19T13:07:37.296Z,3.80
2018-10-19T13:10:06.887Z,3.27
2018-10-19T13:12:36.227Z,3.77
2018-10-19T13:15:06.646Z,3.87
2018-10-19T13:17:36.019Z,3.83
2018-10-19T13:20:14.091Z,4.07
2018-10-19T13:22:43.450Z,3.53
2018-10-19T13:25:16.314Z,3.60
2018-10-19T13:27:45.695Z,4.07
2018-10-19T13:30:15.079Z,4.30
2018-10-19T13:32:44.949Z,3.77
2018-10-19T13:35:14.876Z,3.97
2018-10-19T13:37:44.244Z,3.40
2018-10-19T13:40:13.627Z,4.42
2018-10-19T13:42:42.999Z,4.30
2018-10-19T13:45:12.756Z,4.40
2018-10-19T13:47:42.072Z,4.17
2018-10-19T13:50:11.517Z,19.13
2018-10-19T13:52:40.909Z,7.37
2018-10-19T13:55:10.270Z,5.55
2018-10-19T13:57:39.843Z,4.23
2018-10-19T14:00:09.292Z,4.03
2018-10-19T14:02:39.445Z,4.00
2018-10-19T14:05:09.565Z,4.43
2018-10-19T14:07:39.104Z,4.37
2018-10-19T14:10:09.948Z,4.53
2018-10-19T14:12:40.174Z,4.40
2018-10-19T14:15:10.828Z,4.67
2018-10-19T14:17:44.310Z,4.70
2018-10-19T14:20:13.996Z,4.40
2018-10-19T14:22:44.380Z,4.20
2018-10-19T14:25:14.580Z,3.90
2018-10-19T14:27:44.681Z,4.00
2018-10-19T14:32:52.257Z,4.73
2018-10-19T14:35:21.552Z,5.47
2018-10-19T14:37:50.885Z,6.62
2018-10-19T14:40:20.955Z,6.25
2018-10-19T14:42:50.308Z,6.33
2018-10-19T14:45:20.088Z,4.93
2018-10-19T14:47:50.067Z,5.40
2018-10-19T14:50:19.740Z,5.60
2018-10-19T14:52:49.064Z,5.53
2018-10-19T14:55:19.440Z,6.20
2018-10-19T14:57:48.778Z,5.50
2018-10-19T15:00:19.200Z,5.53
2018-10-19T15:02:48.587Z,6.13
2018-10-19T15:05:20.611Z,5.80
2018-10-19T15:07:49.941Z,4.77
2018-10-19T15:10:21.692Z,5.37
2018-10-19T15:12:52.019Z,6.20
2018-10-19T15:15:25.118Z,7.05
2018-10-19T15:17:57.508Z,5.78
2018-10-19T15:20:26.949Z,5.33
2018-10-19T15:22:56.291Z,5.00
2018-10-19T15:25:25.623Z,5.43
2018-10-19T15:27:57.940Z,4.40
2018-10-19T15:30:28.020Z,4.47
2018-10-19T15:32:57.901Z,4.53
2018-10-19T15:35:31.274Z,6.80
2018-10-19T15:38:04.741Z,4.30
2018-10-19T15:40:37.210Z,4.87
2018-10-19T15:43:09.279Z,4.37
2018-10-19T15:45:41.551Z,4.37
2018-10-19T15:48:15.035Z,4.55
2018-10-19T15:50:47.818Z,4.57
2018-10-19T15:53:20.542Z,4.80
2018-10-19T15:55:51.736Z,7.13
2018-10-19T15:58:29.634Z,5.97
2018-10-19T16:01:00.815Z,6.37
2018-10-19T16:03:32.600Z,5.47
2018-10-19T16:06:02.270Z,4.97
2018-10-19T16:08:31.750Z,5.10
2018-10-19T16:11:05.406Z,4.63
2018-10-19T16:13:35.029Z,4.93
2018-10-19T16:16:08.039Z,4.70
2018-10-19T16:18:40.699Z,4.13
2018-10-19T16:21:10.254Z,4.70
2018-10-19T16:23:39.910Z,6.13
2018-10-19T16:26:09.543Z,5.87
2018-10-19T16:28:38.939Z,5.17
2018-10-19T16:31:08.319Z,4.07
2018-10-19T16:33:37.646Z,4.23
2018-10-19T16:36:07.246Z,4.60
2018-10-19T16:38:36.526Z,4.43
2018-10-19T16:41:06.731Z,4.40
2018-10-19T16:43:36.040Z,4.37
2018-10-19T16:46:06.805Z,4.50
2018-10-19T16:48:36.142Z,4.13
2018-10-19T16:51:06.536Z,4.15
2018-10-19T16:53:35.809Z,5.23
2018-10-19T16:56:06.225Z,4.65
2018-10-19T16:58:35.618Z,4.77
2018-10-19T17:01:06.159Z,4.40
2018-10-19T17:03:35.462Z,4.60
2018-10-19T17:06:06.577Z,4.20
2018-10-19T17:08:35.858Z,4.53
2018-10-19T17:11:05.495Z,5.07
2018-10-19T17:13:34.826Z,7.10
2018-10-19T17:16:04.425Z,6.73
2018-10-19T17:18:34.113Z,5.67
2018-10-19T17:21:03.993Z,4.60
2018-10-19T17:23:33.659Z,6.37
2018-10-19T17:26:04.606Z,4.60
2018-10-19T17:28:34.248Z,4.27
2018-10-19T17:31:04.353Z,4.17
2018-10-19T17:33:34.149Z,4.17
2018-10-19T17:36:03.873Z,4.57
2018-10-19T17:38:33.576Z,4.40
2018-10-19T17:41:03.221Z,3.67
2018-10-19T17:43:33.603Z,4.60
2018-10-19T17:46:03.166Z,4.22
2018-10-19T17:48:32.783Z,4.50
2018-10-19T17:51:02.583Z,4.20
2018-10-19T17:53:32.086Z,4.77
2018-10-19T17:56:01.625Z,4.33
2018-10-19T18:01:05.669Z,4.57
2018-10-19T18:03:35.261Z,4.63
2018-10-19T18:06:06.503Z,4.53
2018-10-19T18:08:36.043Z,4.93
2018-10-19T18:11:06.624Z,5.35
2018-10-19T18:13:36.862Z,4.10
2018-10-19T18:16:09.821Z,4.00
2018-10-19T18:18:39.286Z,4.23
2018-10-19T18:21:08.935Z,5.00
2018-10-19T18:23:38.403Z,5.37
2018-10-19T18:26:07.993Z,4.80
2018-10-19T18:28:37.506Z,4.83
2018-10-19T18:31:07.005Z,4.20
2018-10-19T18:33:36.509Z,5.67
2018-10-19T18:36:06.429Z,4.13
2018-10-19T18:38:36.033Z,4.77
2018-10-19T18:41:06.647Z,4.23
2018-10-19T18:43:36.152Z,4.43
2018-10-19T18:46:06.896Z,4.62
2018-10-19T18:48:36.498Z,5.15
2018-10-19T18:51:06.512Z,5.03
2018-10-19T18:53:36.585Z,5.80
2018-10-19T18:56:06.474Z,5.08
2018-10-19T18:58:35.863Z,5.80
2018-10-19T19:01:06.692Z,5.55
2018-10-19T19:03:36.146Z,4.70
2018-10-19T19:06:06.625Z,5.28
2018-10-19T19:08:36.126Z,5.13
2018-10-19T19:11:06.705Z,5.53
2018-10-19T19:13:40.650Z,4.93
2018-10-19T19:16:15.271Z,5.00
2018-10-19T19:18:44.797Z,5.80
2018-10-19T19:21:14.307Z,5.30
2018-10-19T19:23:48.898Z,6.17
2018-10-19T19:26:20.296Z,6.50
2018-10-19T19:28:49.929Z,5.67
2018-10-19T19:31:19.387Z,7.23
2018-10-19T19:33:54.058Z,6.60
2018-10-19T19:36:23.619Z,6.00
2018-10-19T19:38:53.629Z,6.87
2018-10-19T19:41:28.310Z,6.25
2018-10-19T19:43:57.912Z,5.93
2018-10-19T19:46:27.977Z,6.10
2018-10-19T19:49:02.765Z,6.90
2018-10-19T19:51:32.526Z,6.73
2018-10-19T19:54:02.048Z,5.67
2018-10-19T19:56:33.372Z,6.43
2018-10-19T19:59:03.617Z,6.57
2018-10-19T20:01:33.250Z,7.33
2018-10-19T20:04:02.817Z,8.47
2018-10-19T20:06:32.329Z,9.53
2018-10-19T20:09:01.836Z,7.03
2018-10-19T20:11:31.478Z,7.90
2018-10-19T20:14:01.071Z,7.47
2018-10-19T20:16:31.241Z,7.90
2018-10-19T20:19:00.844Z,7.33
2018-10-19T20:21:30.480Z,9.60
2018-10-19T20:23:59.987Z,8.07
2018-10-19T20:26:29.596Z,9.47
2018-10-19T20:28:59.203Z,10.33
2018-10-19T20:31:28.916Z,8.33
2018-10-19T20:33:58.598Z,8.63
2018-10-19T20:36:28.133Z,8.47
2018-10-19T20:38:57.772Z,10.50
2018-10-19T20:41:27.422Z,10.03
2018-10-19T20:43:57.068Z,11.97
2018-10-19T20:46:26.651Z,9.73
2018-10-19T20:48:56.201Z,10.57
2018-10-19T20:51:25.703Z,11.27
2018-10-19T20:53:55.277Z,9.80
2018-10-19T20:56:24.921Z,10.00
2018-10-19T20:58:54.571Z,9.03
2018-10-19T21:01:24.188Z,11.43
2018-10-19T21:03:53.776Z,10.87
2018-10-19T21:06:23.487Z,9.77
2018-10-19T21:08:53.057Z,11.50
2018-10-19T21:11:22.638Z,11.33
2018-10-19T21:13:52.225Z,13.57
2018-10-19T21:16:21.583Z,10.77
2018-10-19T21:18:50.958Z,12.43
2018-10-19T21:21:20.246Z,12.15
2018-10-19T21:23:49.670Z,11.70
2018-10-19T21:26:19.011Z,8.88
2018-10-19T21:28:49.265Z,10.80
2018-10-19T21:31:18.751Z,9.00
2018-10-19T21:33:48.218Z,9.47
2018-10-19T21:36:18.422Z,11.90
2018-10-19T21:38:47.744Z,11.60
2018-10-19T21:41:17.053Z,11.17
2018-10-19T21:43:46.402Z,12.63
2018-10-19T21:46:15.722Z,12.97
2018-10-19T21:48:45.062Z,13.13
2018-10-19T21:51:14.482Z,15.77
2018-10-19T21:53:43.838Z,13.43
2018-10-19T21:56:13.377Z,13.22
2018-10-19T21:58:42.548Z,11.83
2018-10-19T22:01:11.896Z,11.10
2018-10-19T22:03:41.336Z,11.27
2018-10-19T22:06:10.731Z,11.63
2018-10-19T22:08:40.189Z,11.55
2018-10-19T22:11:09.393Z,10.63
2018-10-19T22:13:38.701Z,10.33
2018-10-19T22:16:08.396Z,12.33
2018-10-19T22:18:37.707Z,10.73
2018-10-19T22:21:07.145Z,11.67
2018-10-19T22:23:39.401Z,11.90
2018-10-19T22:26:08.799Z,11.90
2018-10-19T22:28:38.070Z,11.35
2018-10-19T22:31:07.941Z,11.90
2018-10-19T22:33:37.164Z,12.20
2018-10-19T22:36:06.528Z,12.40
2018-10-19T22:38:35.834Z,11.93
2018-10-19T22:41:06.620Z,11.08
2018-10-19T22:43:36.074Z,11.73
2018-10-19T22:46:06.330Z,12.28
2018-10-19T22:48:35.652Z,10.23
2018-10-19T22:51:05.940Z,11.25
2018-10-19T22:53:35.258Z,12.33
2018-10-19T22:56:04.650Z,11.53
2018-10-19T22:58:33.966Z,11.80
2018-10-19T23:01:10.291Z,13.50
2018-10-19T23:03:47.051Z,11.90
2018-10-19T23:06:19.445Z,10.67
2018-10-19T23:08:57.091Z,12.00
2018-10-19T23:11:33.683Z,12.00
2018-10-19T23:14:06.617Z,13.30
2018-10-19T23:16:44.377Z,13.13
2018-10-19T23:19:22.054Z,11.15
2018-10-19T23:21:58.819Z,11.33
2018-10-19T23:24:36.649Z,12.07
2018-10-19T23:27:14.362Z,11.85
2018-10-19T23:29:51.148Z,11.27
2018-10-19T23:32:29.023Z,10.27
2018-10-19T23:35:06.022Z,10.70
2018-10-19T23:37:43.922Z,12.07
2018-10-19T23:40:20.533Z,9.37
2018-10-19T23:42:57.609Z,11.40
2018-10-19T23:45:34.989Z,12.13
2018-10-19T23:48:12.830Z,12.23
2018-10-19T23:50:47.955Z,12.43
2018-10-19T23:53:24.835Z,12.10
2018-10-19T23:56:02.049Z,10.50
2018-10-19T23:58:38.296Z,11.00
